sensor_id;sensor_type;location;lat;lon;timestamp;P1;durP1;ratioP1;P2;durP2;ratioP2
75441;SDS011;64019;48.312;14.226;2023-02-17T00:00:34;45.97;;;21.30;;
75441;SDS011;64019;48.312;14.226;2023-02-17T00:03:00;49.90;;;21.93;;
75441;SDS011;64019;48.312;14.226;2023-02-17T00:05:26;46.63;;;20.83;;
75441;SDS011;64019;48.312;14.226;2023-02-17T00:07:52;51.30;;;21.90;;
75441;SDS011;64019;48.312;14.226;2023-02-17T00:10:18;49.00;;;22.13;;
75441;SDS011;64019;48.312;14.226;2023-02-17T00:12:44;47.60;;;20.93;;
75441;SDS011;64019;48.312;14.226;2023-02-17T00:15:10;46.93;;;20.87;;
75441;SDS011;64019;48.312;14.226;2023-02-17T00:17:36;48.83;;;21.07;;
75441;SDS011;64019;48.312;14.226;2023-02-17T00:20:02;46.67;;;21.67;;
75441;SDS011;64019;48.312;14.226;2023-02-17T00:22:29;53.10;;;21.87;;
75441;SDS011;64019;48.312;14.226;2023-02-17T00:24:54;48.57;;;20.73;;
75441;SDS011;64019;48.312;14.226;2023-02-17T00:27:20;49.20;;;21.20;;
75441;SDS011;64019;48.312;14.226;2023-02-17T00:29:46;49.93;;;20.77;;
75441;SDS011;64019;48.312;14.226;2023-02-17T00:32:11;46.87;;;20.63;;
75441;SDS011;64019;48.312;14.226;2023-02-17T00:34:37;53.23;;;21.20;;
75441;SDS011;64019;48.312;14.226;2023-02-17T00:37:03;49.87;;;21.63;;
75441;SDS011;64019;48.312;14.226;2023-02-17T00:39:28;53.03;;;22.60;;
75441;SDS011;64019;48.312;14.226;2023-02-17T00:41:54;51.87;;;21.33;;
75441;SDS011;64019;48.312;14.226;2023-02-17T00:44:21;51.90;;;22.80;;
75441;SDS011;64019;48.312;14.226;2023-02-17T00:46:48;48.83;;;20.37;;
75441;SDS011;64019;48.312;14.226;2023-02-17T00:49:15;45.30;;;20.87;;
75441;SDS011;64019;48.312;14.226;2023-02-17T00:51:42;45.40;;;21.67;;
75441;SDS011;64019;48.312;14.226;2023-02-17T00:54:08;55.07;;;22.03;;
75441;SDS011;64019;48.312;14.226;2023-02-17T00:56:34;47.53;;;20.60;;
75441;SDS011;64019;48.312;14.226;2023-02-17T00:59:00;42.23;;;20.57;;
75441;SDS011;64019;48.312;14.226;2023-02-17T01:01:25;52.17;;;22.43;;
75441;SDS011;64019;48.312;14.226;2023-02-17T01:03:51;57.47;;;23.70;;
75441;SDS011;64019;48.312;14.226;2023-02-17T01:06:27;48.10;;;21.20;;
75441;SDS011;64019;48.312;14.226;2023-02-17T01:08:55;49.20;;;21.37;;
75441;SDS011;64019;48.312;14.226;2023-02-17T01:11:27;51.03;;;22.17;;
75441;SDS011;64019;48.312;14.226;2023-02-17T01:13:55;52.57;;;22.30;;
75441;SDS011;64019;48.312;14.226;2023-02-17T01:16:22;51.93;;;22.00;;
75441;SDS011;64019;48.312;14.226;2023-02-17T01:18:50;47.27;;;20.50;;
75441;SDS011;64019;48.312;14.226;2023-02-17T01:21:17;48.93;;;21.43;;
75441;SDS011;64019;48.312;14.226;2023-02-17T01:23:43;50.30;;;21.93;;
75441;SDS011;64019;48.312;14.226;2023-02-17T01:26:13;48.67;;;21.70;;
75441;SDS011;64019;48.312;14.226;2023-02-17T01:28:41;54.43;;;20.63;;
75441;SDS011;64019;48.312;14.226;2023-02-17T01:31:07;44.87;;;20.70;;
75441;SDS011;64019;48.312;14.226;2023-02-17T01:33:34;56.53;;;22.37;;
75441;SDS011;64019;48.312;14.226;2023-02-17T01:36:01;50.10;;;21.93;;
75441;SDS011;64019;48.312;14.226;2023-02-17T01:38:27;40.63;;;19.27;;
75441;SDS011;64019;48.312;14.226;2023-02-17T01:40:53;47.60;;;21.67;;
75441;SDS011;64019;48.312;14.226;2023-02-17T01:43:19;47.47;;;20.37;;
75441;SDS011;64019;48.312;14.226;2023-02-17T01:45:52;48.50;;;21.97;;
75441;SDS011;64019;48.312;14.226;2023-02-17T01:48:29;42.93;;;20.20;;
75441;SDS011;64019;48.312;14.226;2023-02-17T01:51:03;46.73;;;20.80;;
75441;SDS011;64019;48.312;14.226;2023-02-17T01:53:37;47.47;;;21.10;;
75441;SDS011;64019;48.312;14.226;2023-02-17T01:56:09;45.63;;;20.63;;
75441;SDS011;64019;48.312;14.226;2023-02-17T01:58:38;46.00;;;22.80;;
75441;SDS011;64019;48.312;14.226;2023-02-17T02:01:06;46.37;;;20.63;;
75441;SDS011;64019;48.312;14.226;2023-02-17T02:03:33;48.30;;;21.73;;
75441;SDS011;64019;48.312;14.226;2023-02-17T02:06:00;43.17;;;21.17;;
75441;SDS011;64019;48.312;14.226;2023-02-17T02:08:33;46.97;;;21.93;;
75441;SDS011;64019;48.312;14.226;2023-02-17T02:11:20;45.20;;;20.90;;
75441;SDS011;64019;48.312;14.226;2023-02-17T02:13:46;46.67;;;20.83;;
75441;SDS011;64019;48.312;14.226;2023-02-17T02:16:13;44.43;;;21.40;;
75441;SDS011;64019;48.312;14.226;2023-02-17T02:24:54;43.27;;;19.63;;
75441;SDS011;64019;48.312;14.226;2023-02-17T05:16:28;46.37;;;20.43;;
75441;SDS011;64019;48.312;14.226;2023-02-17T05:18:53;48.83;;;20.53;;
75441;SDS011;64019;48.312;14.226;2023-02-17T05:21:19;52.40;;;23.70;;
75441;SDS011;64019;48.312;14.226;2023-02-17T05:23:45;52.50;;;23.03;;
75441;SDS011;64019;48.312;14.226;2023-02-17T05:26:10;47.77;;;21.60;;
75441;SDS011;64019;48.312;14.226;2023-02-17T05:28:36;51.80;;;21.70;;
75441;SDS011;64019;48.312;14.226;2023-02-17T05:31:02;46.00;;;20.73;;
75441;SDS011;64019;48.312;14.226;2023-02-17T05:33:29;49.80;;;21.30;;
75441;SDS011;64019;48.312;14.226;2023-02-17T05:35:54;53.53;;;21.67;;
75441;SDS011;64019;48.312;14.226;2023-02-17T05:38:20;45.67;;;21.63;;
75441;SDS011;64019;48.312;14.226;2023-02-17T05:40:46;50.83;;;22.17;;
75441;SDS011;64019;48.312;14.226;2023-02-17T05:43:13;46.60;;;21.60;;
75441;SDS011;64019;48.312;14.226;2023-02-17T05:45:39;48.70;;;20.97;;
75441;SDS011;64019;48.312;14.226;2023-02-17T05:48:05;40.23;;;19.87;;
75441;SDS011;64019;48.312;14.226;2023-02-17T05:50:30;47.53;;;20.97;;
75441;SDS011;64019;48.312;14.226;2023-02-17T05:52:56;42.53;;;20.13;;
75441;SDS011;64019;48.312;14.226;2023-02-17T05:55:22;51.43;;;21.60;;
75441;SDS011;64019;48.312;14.226;2023-02-17T05:57:47;48.00;;;21.57;;
75441;SDS011;64019;48.312;14.226;2023-02-17T06:00:13;53.37;;;23.60;;
75441;SDS011;64019;48.312;14.226;2023-02-17T06:02:39;47.33;;;21.70;;
75441;SDS011;64019;48.312;14.226;2023-02-17T06:05:05;44.23;;;20.33;;
75441;SDS011;64019;48.312;14.226;2023-02-17T06:07:31;45.87;;;21.30;;
75441;SDS011;64019;48.312;14.226;2023-02-17T06:09:57;45.37;;;21.83;;
75441;SDS011;64019;48.312;14.226;2023-02-17T06:12:23;46.27;;;21.10;;
75441;SDS011;64019;48.312;14.226;2023-02-17T06:14:48;47.07;;;20.40;;
75441;SDS011;64019;48.312;14.226;2023-02-17T06:17:14;48.07;;;22.00;;
75441;SDS011;64019;48.312;14.226;2023-02-17T06:19:39;48.23;;;22.00;;
75441;SDS011;64019;48.312;14.226;2023-02-17T06:22:05;45.67;;;21.43;;
75441;SDS011;64019;48.312;14.226;2023-02-17T06:24:31;45.67;;;20.87;;
75441;SDS011;64019;48.312;14.226;2023-02-17T06:26:56;45.47;;;21.17;;
75441;SDS011;64019;48.312;14.226;2023-02-17T06:29:22;51.53;;;21.70;;
75441;SDS011;64019;48.312;14.226;2023-02-17T06:31:48;48.27;;;22.63;;
75441;SDS011;64019;48.312;14.226;2023-02-17T06:34:13;47.47;;;21.30;;
75441;SDS011;64019;48.312;14.226;2023-02-17T06:36:39;50.77;;;21.77;;
75441;SDS011;64019;48.312;14.226;2023-02-17T06:39:05;50.23;;;21.97;;
75441;SDS011;64019;48.312;14.226;2023-02-17T06:41:30;45.03;;;22.83;;
75441;SDS011;64019;48.312;14.226;2023-02-17T06:43:57;45.67;;;21.60;;
75441;SDS011;64019;48.312;14.226;2023-02-17T06:46:22;45.93;;;22.63;;
75441;SDS011;64019;48.312;14.226;2023-02-17T06:48:48;47.50;;;21.67;;
75441;SDS011;64019;48.312;14.226;2023-02-17T06:51:13;47.00;;;22.23;;
75441;SDS011;64019;48.312;14.226;2023-02-17T06:53:39;48.77;;;21.57;;
75441;SDS011;64019;48.312;14.226;2023-02-17T06:56:05;45.53;;;21.73;;
75441;SDS011;64019;48.312;14.226;2023-02-17T06:58:31;43.10;;;21.17;;
75441;SDS011;64019;48.312;14.226;2023-02-17T07:00:59;47.10;;;21.47;;
75441;SDS011;64019;48.312;14.226;2023-02-17T07:03:25;43.50;;;21.33;;
75441;SDS011;64019;48.312;14.226;2023-02-17T07:05:51;45.87;;;21.03;;
75441;SDS011;64019;48.312;14.226;2023-02-17T07:08:21;45.70;;;21.60;;
75441;SDS011;64019;48.312;14.226;2023-02-17T07:10:47;46.30;;;21.20;;
75441;SDS011;64019;48.312;14.226;2023-02-17T07:13:12;48.90;;;20.37;;
75441;SDS011;64019;48.312;14.226;2023-02-17T07:15:38;49.93;;;22.20;;
75441;SDS011;64019;48.312;14.226;2023-02-17T07:18:03;56.10;;;22.00;;
75441;SDS011;64019;48.312;14.226;2023-02-17T07:20:29;46.23;;;21.53;;
75441;SDS011;64019;48.312;14.226;2023-02-17T07:22:56;45.70;;;22.33;;
75441;SDS011;64019;48.312;14.226;2023-02-17T07:25:22;47.47;;;21.93;;
75441;SDS011;64019;48.312;14.226;2023-02-17T07:27:48;49.27;;;21.27;;
75441;SDS011;64019;48.312;14.226;2023-02-17T07:30:13;45.17;;;20.93;;
75441;SDS011;64019;48.312;14.226;2023-02-17T07:32:39;42.13;;;20.70;;
75441;SDS011;64019;48.312;14.226;2023-02-17T07:35:05;47.00;;;21.63;;
75441;SDS011;64019;48.312;14.226;2023-02-17T07:37:31;45.03;;;22.57;;
75441;SDS011;64019;48.312;14.226;2023-02-17T07:39:56;44.47;;;20.60;;
75441;SDS011;64019;48.312;14.226;2023-02-17T07:42:22;47.33;;;21.57;;
75441;SDS011;64019;48.312;14.226;2023-02-17T07:44:48;45.47;;;21.77;;
75441;SDS011;64019;48.312;14.226;2023-02-17T07:47:13;46.73;;;21.53;;
75441;SDS011;64019;48.312;14.226;2023-02-17T07:49:39;47.03;;;21.03;;
75441;SDS011;64019;48.312;14.226;2023-02-17T07:52:05;42.53;;;21.07;;
75441;SDS011;64019;48.312;14.226;2023-02-17T07:54:30;41.80;;;20.17;;
75441;SDS011;64019;48.312;14.226;2023-02-17T07:56:56;43.73;;;20.67;;
75441;SDS011;64019;48.312;14.226;2023-02-17T07:59:22;42.93;;;21.10;;
75441;SDS011;64019;48.312;14.226;2023-02-17T08:01:47;44.90;;;20.63;;
75441;SDS011;64019;48.312;14.226;2023-02-17T08:04:14;49.43;;;21.60;;
75441;SDS011;64019;48.312;14.226;2023-02-17T08:06:40;37.43;;;18.53;;
75441;SDS011;64019;48.312;14.226;2023-02-17T08:09:06;40.40;;;19.10;;
75441;SDS011;64019;48.312;14.226;2023-02-17T08:11:52;43.10;;;19.77;;
75441;SDS011;64019;48.312;14.226;2023-02-17T08:14:36;41.27;;;18.70;;
75441;SDS011;64019;48.312;14.226;2023-02-17T08:17:02;38.43;;;16.77;;
75441;SDS011;64019;48.312;14.226;2023-02-17T08:19:28;37.33;;;17.57;;
75441;SDS011;64019;48.312;14.226;2023-02-17T08:21:54;34.00;;;18.20;;
75441;SDS011;64019;48.312;14.226;2023-02-17T08:24:20;36.73;;;17.90;;
75441;SDS011;64019;48.312;14.226;2023-02-17T08:26:46;41.43;;;19.17;;
75441;SDS011;64019;48.312;14.226;2023-02-17T08:29:15;38.70;;;18.43;;
75441;SDS011;64019;48.312;14.226;2023-02-17T08:31:41;47.50;;;19.53;;
75441;SDS011;64019;48.312;14.226;2023-02-17T08:34:08;40.97;;;18.97;;
75441;SDS011;64019;48.312;14.226;2023-02-17T08:36:35;44.20;;;19.57;;
75441;SDS011;64019;48.312;14.226;2023-02-17T08:39:02;38.43;;;18.70;;
75441;SDS011;64019;48.312;14.226;2023-02-17T08:41:33;40.93;;;21.00;;
75441;SDS011;64019;48.312;14.226;2023-02-17T08:44:00;39.63;;;19.40;;
75441;SDS011;64019;48.312;14.226;2023-02-17T08:46:27;39.90;;;18.60;;
75441;SDS011;64019;48.312;14.226;2023-02-17T08:48:54;37.57;;;17.83;;
75441;SDS011;64019;48.312;14.226;2023-02-17T08:51:21;43.33;;;19.30;;
75441;SDS011;64019;48.312;14.226;2023-02-17T08:53:50;39.30;;;18.70;;
75441;SDS011;64019;48.312;14.226;2023-02-17T08:56:18;39.77;;;19.30;;
75441;SDS011;64019;48.312;14.226;2023-02-17T08:58:44;38.13;;;19.17;;
75441;SDS011;64019;48.312;14.226;2023-02-17T09:01:10;39.07;;;19.83;;
75441;SDS011;64019;48.312;14.226;2023-02-17T09:03:36;38.63;;;19.00;;
75441;SDS011;64019;48.312;14.226;2023-02-17T09:06:03;38.43;;;18.80;;
75441;SDS011;64019;48.312;14.226;2023-02-17T09:08:30;41.37;;;19.40;;
75441;SDS011;64019;48.312;14.226;2023-02-17T09:10:56;40.37;;;20.33;;
75441;SDS011;64019;48.312;14.226;2023-02-17T09:13:22;39.97;;;19.77;;
75441;SDS011;64019;48.312;14.226;2023-02-17T09:15:48;40.20;;;19.87;;
75441;SDS011;64019;48.312;14.226;2023-02-17T09:18:17;42.27;;;21.53;;
75441;SDS011;64019;48.312;14.226;2023-02-17T09:20:46;48.50;;;20.87;;
75441;SDS011;64019;48.312;14.226;2023-02-17T09:23:13;43.23;;;20.20;;
75441;SDS011;64019;48.312;14.226;2023-02-17T09:25:39;42.13;;;19.77;;
75441;SDS011;64019;48.312;14.226;2023-02-17T09:28:04;40.83;;;20.23;;
75441;SDS011;64019;48.312;14.226;2023-02-17T09:30:30;41.07;;;19.17;;
75441;SDS011;64019;48.312;14.226;2023-02-17T09:32:56;46.13;;;21.80;;
75441;SDS011;64019;48.312;14.226;2023-02-17T09:35:22;46.37;;;21.23;;
75441;SDS011;64019;48.312;14.226;2023-02-17T09:37:48;42.07;;;20.57;;
75441;SDS011;64019;48.312;14.226;2023-02-17T09:40:16;47.60;;;21.30;;
75441;SDS011;64019;48.312;14.226;2023-02-17T09:42:47;40.20;;;20.63;;
75441;SDS011;64019;48.312;14.226;2023-02-17T09:45:25;43.73;;;21.97;;
75441;SDS011;64019;48.312;14.226;2023-02-17T09:48:05;41.10;;;21.07;;
75441;SDS011;64019;48.312;14.226;2023-02-17T09:50:40;53.10;;;22.87;;
75441;SDS011;64019;48.312;14.226;2023-02-17T09:56:15;44.23;;;22.13;;
75441;SDS011;64019;48.312;14.226;2023-02-17T09:58:54;45.57;;;22.10;;
75441;SDS011;64019;48.312;14.226;2023-02-17T10:01:30;41.47;;;21.20;;
75441;SDS011;64019;48.312;14.226;2023-02-17T10:04:04;39.40;;;20.23;;
75441;SDS011;64019;48.312;14.226;2023-02-17T10:06:45;43.47;;;20.13;;
75441;SDS011;64019;48.312;14.226;2023-02-17T10:09:18;41.70;;;20.20;;
75441;SDS011;64019;48.312;14.226;2023-02-17T10:11:55;43.30;;;21.43;;
75441;SDS011;64019;48.312;14.226;2023-02-17T10:14:42;44.90;;;21.30;;
75441;SDS011;64019;48.312;14.226;2023-02-17T10:20:19;41.87;;;20.53;;
75441;SDS011;64019;48.312;14.226;2023-02-17T10:22:49;42.27;;;19.97;;
75441;SDS011;64019;48.312;14.226;2023-02-17T10:28:24;39.03;;;20.83;;
75441;SDS011;64019;48.312;14.226;2023-02-17T10:33:48;37.07;;;18.63;;
75441;SDS011;64019;48.312;14.226;2023-02-17T10:39:02;35.03;;;16.83;;
75441;SDS011;64019;48.312;14.226;2023-02-17T10:41:58;35.10;;;17.67;;
75441;SDS011;64019;48.312;14.226;2023-02-17T10:44:24;35.43;;;18.50;;
75441;SDS011;64019;48.312;14.226;2023-02-17T10:46:50;34.40;;;16.63;;
75441;SDS011;64019;48.312;14.226;2023-02-17T10:49:28;32.93;;;15.97;;
75441;SDS011;64019;48.312;14.226;2023-02-17T10:52:11;32.87;;;17.30;;
75441;SDS011;64019;48.312;14.226;2023-02-17T10:54:44;31.37;;;17.27;;
75441;SDS011;64019;48.312;14.226;2023-02-17T10:57:23;34.67;;;16.97;;
75441;SDS011;64019;48.312;14.226;2023-02-17T10:59:56;28.63;;;15.83;;
75441;SDS011;64019;48.312;14.226;2023-02-17T11:02:42;32.20;;;17.07;;
75441;SDS011;64019;48.312;14.226;2023-02-17T11:05:31;36.33;;;16.83;;
75441;SDS011;64019;48.312;14.226;2023-02-17T11:08:00;32.47;;;16.70;;
75441;SDS011;64019;48.312;14.226;2023-02-17T11:10:33;33.13;;;16.27;;
75441;SDS011;64019;48.312;14.226;2023-02-17T11:13:01;34.17;;;16.17;;
75441;SDS011;64019;48.312;14.226;2023-02-17T11:15:36;28.87;;;14.63;;
75441;SDS011;64019;48.312;14.226;2023-02-17T11:18:10;25.57;;;13.47;;
75441;SDS011;64019;48.312;14.226;2023-02-17T11:20:42;25.87;;;14.83;;
75441;SDS011;64019;48.312;14.226;2023-02-17T11:25:39;30.27;;;12.47;;
75441;SDS011;64019;48.312;14.226;2023-02-17T11:28:13;21.50;;;11.93;;
75441;SDS011;64019;48.312;14.226;2023-02-17T11:30:50;23.77;;;11.77;;
75441;SDS011;64019;48.312;14.226;2023-02-17T11:33:39;20.77;;;11.17;;
75441;SDS011;64019;48.312;14.226;2023-02-17T11:36:04;19.43;;;10.20;;
75441;SDS011;64019;48.312;14.226;2023-02-17T11:38:33;21.60;;;9.90;;
75441;SDS011;64019;48.312;14.226;2023-02-17T11:41:06;16.00;;;8.57;;
75441;SDS011;64019;48.312;14.226;2023-02-17T11:43:34;23.43;;;9.97;;
75441;SDS011;64019;48.312;14.226;2023-02-17T11:51:32;19.40;;;11.27;;
75441;SDS011;64019;48.312;14.226;2023-02-17T11:54:31;23.73;;;12.23;;
75441;SDS011;64019;48.312;14.226;2023-02-17T12:02:53;20.60;;;10.80;;
75441;SDS011;64019;48.312;14.226;2023-02-17T12:11:47;17.37;;;8.73;;
75441;SDS011;64019;48.312;14.226;2023-02-17T12:17:46;20.37;;;11.10;;
75441;SDS011;64019;48.312;14.226;2023-02-17T12:25:45;20.60;;;11.17;;
75441;SDS011;64019;48.312;14.226;2023-02-17T12:28:27;22.47;;;12.27;;
75441;SDS011;64019;48.312;14.226;2023-02-17T12:31:13;22.93;;;9.63;;
75441;SDS011;64019;48.312;14.226;2023-02-17T12:36:32;28.27;;;11.33;;
75441;SDS011;64019;48.312;14.226;2023-02-17T12:39:04;22.83;;;11.10;;
75441;SDS011;64019;48.312;14.226;2023-02-17T12:41:39;20.30;;;9.63;;
75441;SDS011;64019;48.312;14.226;2023-02-17T12:44:13;19.73;;;9.43;;
75441;SDS011;64019;48.312;14.226;2023-02-17T12:46:43;17.10;;;8.73;;
75441;SDS011;64019;48.312;14.226;2023-02-17T12:49:13;18.10;;;8.40;;
75441;SDS011;64019;48.312;14.226;2023-02-17T12:52:03;19.57;;;8.87;;
75441;SDS011;64019;48.312;14.226;2023-02-17T12:54:35;18.97;;;8.20;;
75441;SDS011;64019;48.312;14.226;2023-02-17T12:59:38;18.23;;;8.70;;
75441;SDS011;64019;48.312;14.226;2023-02-17T13:02:13;18.77;;;9.17;;
75441;SDS011;64019;48.312;14.226;2023-02-17T13:04:43;15.27;;;8.33;;
75441;SDS011;64019;48.312;14.226;2023-02-17T13:13:04;15.03;;;8.13;;
75441;SDS011;64019;48.312;14.226;2023-02-17T13:15:37;20.43;;;8.30;;
75441;SDS011;64019;48.312;14.226;2023-02-17T13:18:11;14.00;;;8.27;;
75441;SDS011;64019;48.312;14.226;2023-02-17T13:20:42;14.47;;;7.30;;
75441;SDS011;64019;48.312;14.226;2023-02-17T13:23:25;12.57;;;7.30;;
75441;SDS011;64019;48.312;14.226;2023-02-17T13:26:22;16.47;;;7.80;;
75441;SDS011;64019;48.312;14.226;2023-02-17T13:31:42;14.90;;;8.60;;
75441;SDS011;64019;48.312;14.226;2023-02-17T13:34:30;13.80;;;8.73;;
75441;SDS011;64019;48.312;14.226;2023-02-17T13:36:57;26.90;;;8.73;;
75441;SDS011;64019;48.312;14.226;2023-02-17T13:41:56;17.03;;;8.67;;
75441;SDS011;64019;48.312;14.226;2023-02-17T13:44:33;16.43;;;8.93;;
75441;SDS011;64019;48.312;14.226;2023-02-17T13:47:05;19.13;;;9.43;;
75441;SDS011;64019;48.312;14.226;2023-02-17T13:49:40;17.83;;;8.20;;
75441;SDS011;64019;48.312;14.226;2023-02-17T13:52:10;19.70;;;8.03;;
75441;SDS011;64019;48.312;14.226;2023-02-17T13:54:54;16.77;;;7.93;;
75441;SDS011;64019;48.312;14.226;2023-02-17T13:57:27;16.13;;;7.33;;
75441;SDS011;64019;48.312;14.226;2023-02-17T14:00:07;12.60;;;7.53;;
75441;SDS011;64019;48.312;14.226;2023-02-17T14:02:36;15.10;;;7.50;;
75441;SDS011;64019;48.312;14.226;2023-02-17T14:05:46;16.83;;;7.67;;
75441;SDS011;64019;48.312;14.226;2023-02-17T14:07:58;13.20;;;7.60;;
75441;SDS011;64019;48.312;14.226;2023-02-17T14:10:28;13.77;;;7.07;;
75441;SDS011;64019;48.312;14.226;2023-02-17T14:12:54;19.20;;;9.57;;
75441;SDS011;64019;48.312;14.226;2023-02-17T14:15:22;19.13;;;9.67;;
75441;SDS011;64019;48.312;14.226;2023-02-17T14:17:49;19.20;;;9.73;;
75441;SDS011;64019;48.312;14.226;2023-02-17T14:20:25;16.20;;;9.17;;
75441;SDS011;64019;48.312;14.226;2023-02-17T14:23:06;18.33;;;10.43;;
75441;SDS011;64019;48.312;14.226;2023-02-17T14:25:38;24.00;;;11.70;;
75441;SDS011;64019;48.312;14.226;2023-02-17T14:28:17;18.77;;;10.30;;
75441;SDS011;64019;48.312;14.226;2023-02-17T14:30:44;19.13;;;10.90;;
75441;SDS011;64019;48.312;14.226;2023-02-17T14:35:48;21.37;;;11.40;;
75441;SDS011;64019;48.312;14.226;2023-02-17T14:38:18;21.53;;;10.37;;
75441;SDS011;64019;48.312;14.226;2023-02-17T14:40:46;23.77;;;10.63;;
75441;SDS011;64019;48.312;14.226;2023-02-17T14:43:12;19.03;;;10.07;;
75441;SDS011;64019;48.312;14.226;2023-02-17T14:45:38;17.30;;;8.97;;
75441;SDS011;64019;48.312;14.226;2023-02-17T14:48:03;18.63;;;10.40;;
75441;SDS011;64019;48.312;14.226;2023-02-17T14:50:33;19.40;;;9.30;;
75441;SDS011;64019;48.312;14.226;2023-02-17T14:52:59;21.30;;;10.20;;
75441;SDS011;64019;48.312;14.226;2023-02-17T14:57:57;21.33;;;10.13;;
75441;SDS011;64019;48.312;14.226;2023-02-17T15:00:23;18.33;;;9.70;;
75441;SDS011;64019;48.312;14.226;2023-02-17T15:02:49;21.30;;;10.03;;
75441;SDS011;64019;48.312;14.226;2023-02-17T15:05:15;18.37;;;9.47;;
75441;SDS011;64019;48.312;14.226;2023-02-17T15:07:41;17.13;;;9.90;;
75441;SDS011;64019;48.312;14.226;2023-02-17T15:10:16;21.07;;;10.10;;
75441;SDS011;64019;48.312;14.226;2023-02-17T15:12:45;17.67;;;9.80;;
75441;SDS011;64019;48.312;14.226;2023-02-17T15:15:14;20.23;;;8.93;;
75441;SDS011;64019;48.312;14.226;2023-02-17T15:17:41;18.47;;;10.03;;
75441;SDS011;64019;48.312;14.226;2023-02-17T15:20:06;20.37;;;10.53;;
75441;SDS011;64019;48.312;14.226;2023-02-17T15:22:34;17.40;;;9.60;;
75441;SDS011;64019;48.312;14.226;2023-02-17T15:25:02;17.60;;;10.10;;
75441;SDS011;64019;48.312;14.226;2023-02-17T15:27:37;21.90;;;11.53;;
75441;SDS011;64019;48.312;14.226;2023-02-17T15:30:03;18.00;;;10.30;;
75441;SDS011;64019;48.312;14.226;2023-02-17T15:32:30;23.40;;;11.40;;
75441;SDS011;64019;48.312;14.226;2023-02-17T15:34:56;21.80;;;11.40;;
75441;SDS011;64019;48.312;14.226;2023-02-17T15:37:22;23.03;;;12.47;;
75441;SDS011;64019;48.312;14.226;2023-02-17T15:39:48;22.40;;;12.13;;
75441;SDS011;64019;48.312;14.226;2023-02-17T15:42:13;22.47;;;11.00;;
75441;SDS011;64019;48.312;14.226;2023-02-17T15:44:44;20.80;;;11.30;;
75441;SDS011;64019;48.312;14.226;2023-02-17T15:47:15;21.60;;;10.90;;
75441;SDS011;64019;48.312;14.226;2023-02-17T15:49:43;21.30;;;12.50;;
75441;SDS011;64019;48.312;14.226;2023-02-17T15:52:09;16.67;;;10.70;;
75441;SDS011;64019;48.312;14.226;2023-02-17T15:54:41;22.27;;;10.90;;
75441;SDS011;64019;48.312;14.226;2023-02-17T15:57:07;20.37;;;11.50;;
75441;SDS011;64019;48.312;14.226;2023-02-17T15:59:46;23.80;;;13.17;;
75441;SDS011;64019;48.312;14.226;2023-02-17T16:02:20;22.33;;;12.67;;
75441;SDS011;64019;48.312;14.226;2023-02-17T16:04:47;28.33;;;13.93;;
75441;SDS011;64019;48.312;14.226;2023-02-17T16:07:13;26.47;;;13.63;;
75441;SDS011;64019;48.312;14.226;2023-02-17T16:09:39;21.93;;;12.27;;
75441;SDS011;64019;48.312;14.226;2023-02-17T16:12:04;22.27;;;11.90;;
75441;SDS011;64019;48.312;14.226;2023-02-17T16:14:38;23.67;;;12.43;;
75441;SDS011;64019;48.312;14.226;2023-02-17T16:17:08;25.90;;;12.93;;
75441;SDS011;64019;48.312;14.226;2023-02-17T16:19:39;20.70;;;11.83;;
75441;SDS011;64019;48.312;14.226;2023-02-17T16:22:05;17.87;;;9.23;;
75441;SDS011;64019;48.312;14.226;2023-02-17T16:24:30;11.23;;;7.03;;
75441;SDS011;64019;48.312;14.226;2023-02-17T16:26:56;10.57;;;6.50;;
75441;SDS011;64019;48.312;14.226;2023-02-17T16:29:22;11.93;;;6.90;;
75441;SDS011;64019;48.312;14.226;2023-02-17T16:31:47;10.43;;;6.23;;
75441;SDS011;64019;48.312;14.226;2023-02-17T16:34:17;14.53;;;7.13;;
75441;SDS011;64019;48.312;14.226;2023-02-17T16:36:45;9.00;;;5.70;;
75441;SDS011;64019;48.312;14.226;2023-02-17T16:39:13;10.73;;;5.77;;
75441;SDS011;64019;48.312;14.226;2023-02-17T16:41:41;13.23;;;5.30;;
75441;SDS011;64019;48.312;14.226;2023-02-17T16:44:10;14.73;;;7.13;;
75441;SDS011;64019;48.312;14.226;2023-02-17T16:46:37;15.70;;;8.17;;
75441;SDS011;64019;48.312;14.226;2023-02-17T16:51:57;20.33;;;7.97;;
75441;SDS011;64019;48.312;14.226;2023-02-17T16:54:26;13.03;;;6.80;;
75441;SDS011;64019;48.312;14.226;2023-02-17T16:56:52;10.73;;;5.47;;
75441;SDS011;64019;48.312;14.226;2023-02-17T16:59:19;9.63;;;4.80;;
75441;SDS011;64019;48.312;14.226;2023-02-17T17:01:47;7.87;;;4.27;;
75441;SDS011;64019;48.312;14.226;2023-02-17T17:04:15;10.07;;;3.57;;
75441;SDS011;64019;48.312;14.226;2023-02-17T17:06:43;6.37;;;3.27;;
75441;SDS011;64019;48.312;14.226;2023-02-17T17:09:20;7.07;;;3.33;;
75441;SDS011;64019;48.312;14.226;2023-02-17T17:11:49;8.13;;;3.43;;
75441;SDS011;64019;48.312;14.226;2023-02-17T17:14:14;8.03;;;3.90;;
75441;SDS011;64019;48.312;14.226;2023-02-17T17:16:41;5.10;;;3.50;;
75441;SDS011;64019;48.312;14.226;2023-02-17T17:19:12;6.20;;;3.97;;
75441;SDS011;64019;48.312;14.226;2023-02-17T17:21:38;5.37;;;3.40;;
75441;SDS011;64019;48.312;14.226;2023-02-17T17:24:04;7.43;;;3.93;;
75441;SDS011;64019;48.312;14.226;2023-02-17T17:26:33;8.90;;;4.30;;
75441;SDS011;64019;48.312;14.226;2023-02-17T17:29:03;5.80;;;3.63;;
75441;SDS011;64019;48.312;14.226;2023-02-17T17:31:30;9.83;;;5.50;;
75441;SDS011;64019;48.312;14.226;2023-02-17T17:33:56;6.87;;;4.10;;
75441;SDS011;64019;48.312;14.226;2023-02-17T17:36:23;6.37;;;4.13;;
75441;SDS011;64019;48.312;14.226;2023-02-17T17:39:04;10.37;;;5.63;;
75441;SDS011;64019;48.312;14.226;2023-02-17T17:41:31;8.40;;;5.50;;
75441;SDS011;64019;48.312;14.226;2023-02-17T17:43:57;8.80;;;4.67;;
75441;SDS011;64019;48.312;14.226;2023-02-17T17:46:30;8.60;;;5.13;;
75441;SDS011;64019;48.312;14.226;2023-02-17T17:48:58;10.33;;;6.27;;
75441;SDS011;64019;48.312;14.226;2023-02-17T17:51:26;11.47;;;5.93;;
75441;SDS011;64019;48.312;14.226;2023-02-17T17:53:53;13.27;;;6.63;;
75441;SDS011;64019;48.312;14.226;2023-02-17T17:56:21;10.00;;;6.30;;
75441;SDS011;64019;48.312;14.226;2023-02-17T17:58:51;10.97;;;5.90;;
75441;SDS011;64019;48.312;14.226;2023-02-17T18:01:18;13.57;;;6.27;;
75441;SDS011;64019;48.312;14.226;2023-02-17T18:03:44;11.47;;;5.73;;
75441;SDS011;64019;48.312;14.226;2023-02-17T18:06:13;13.07;;;5.50;;
75441;SDS011;64019;48.312;14.226;2023-02-17T18:08:43;10.53;;;5.23;;
75441;SDS011;64019;48.312;14.226;2023-02-17T18:11:11;10.47;;;5.47;;
75441;SDS011;64019;48.312;14.226;2023-02-17T18:13:39;8.77;;;4.47;;
75441;SDS011;64019;48.312;14.226;2023-02-17T18:16:05;8.13;;;4.47;;
75441;SDS011;64019;48.312;14.226;2023-02-17T18:18:31;7.97;;;4.13;;
75441;SDS011;64019;48.312;14.226;2023-02-17T18:20:57;6.73;;;3.80;;
75441;SDS011;64019;48.312;14.226;2023-02-17T18:23:22;7.07;;;3.13;;
75441;SDS011;64019;48.312;14.226;2023-02-17T18:25:48;5.10;;;3.20;;
75441;SDS011;64019;48.312;14.226;2023-02-17T18:28:14;7.53;;;2.97;;